Hazel Crest, Illinois
Current Conditions -  °F | °C
As of 4:15 PM on Friday 24 Oct 2014 (Local Time) from KIGQ Reporting Station
Clear Clear  
Wind Chill: 66°   Ceiling: Unl
Heat Index: 66°   Visibility: 10mi
Dew Point: 47°   Wind: 9mph
Humidity: 51%   Direction: 280°W
Pressure: 29.98"   Gusts: NA
Location:  41.58°N, 87.69°W
Report Text: KIGQ 242115Z AUTO 28008KT 10SM CLR 19/08 A2998 RMK AO2 T01870084
Loading
Personal Weather Stations






























Interactive Weather Map
Tropical Storm Tracking
New forecast layout! Learn more

10-Day Weather Forecast

Advertisements
Track Severe Weather on mobile